Shinmisaki — JD2336 — position and weather

sailwx.info

Track history (hours):
 
Tides and Currents Weather Stations Pressure Air Temp Water Temp Dewpoint Dewpoint Depression Visibility Wind Speed Wind Dir Waves Ship Positions

Shinmisaki

Last reported at 2018-Feb-22 04:08 UTC. Time now 2018-Feb-24 15:55 UTC.
Position N 33°49' E 130°22'.

Length 59 m.

Type: Cargo ship. MMSI: 431501881.

Date/timePositionNaut miles runAvg speedWind from/ knotsBaromVisibWave heightAir tempDewpointWater temp
2018-Feb-22 04:08N 33°49' E 130°22'311.0
2018-Feb-22 03:51N 33°51' E 130°24'410.8
2018-Feb-22 03:30N 33°54' E 130°28'510.3
2018-Feb-22 03:00N 33°56' E 130°33'510.7
2018-Feb-22 02:30N 33°57' E 130°39'510.8
2018-Feb-22 02:00N 33°58' E 130°46'510.5
2018-Feb-22 01:30N 33°57' E 130°52'3 7.0
2018-Feb-22 01:00N 33°56' E 130°56'4 8.2
2018-Feb-22 00:30N 33°59' E 130°60'510.5
2018-Feb-22 00:00N 33°56' E 131°05'611.2
2018-Feb-21 23:30N 33°54' E 131°11'611.3
2018-Feb-21 23:00N 33°52' E 131°18'611.0
2018-Feb-21 22:29N 33°51' E 131°24'511.0
2018-Feb-21 21:59N 33°50' E 131°31'510.8
2018-Feb-21 21:30N 33°49' E 131°37'710.7
2018-Feb-21 20:52N 33°48' E 131°45'2510.6
2018-Feb-21 18:30N 33°50' E 132°15'2210.4
2018-Feb-21 16:25N 34°01' E 132°37'103 9.0
2018-Feb-21 05:01N 34°30' E 134°37'111.6
2018-Feb-21 04:58N 34°30' E 134°37'711.4
2018-Feb-21 04:23N 34°33' E 134°45'512.2
2018-Feb-21 04:00N 34°34' E 134°50'712.6
2018-Feb-21 03:27N 34°37' E 134°58'512.3
2018-Feb-21 03:01N 34°36' E 135°04'611.4
2018-Feb-21 02:31N 34°36' E 135°11'611.2
2018-Feb-21 02:01N 34°37' E 135°18'610.8
2018-Feb-21 01:30N 34°36' E 135°25'2 3.9
2018-Feb-21 00:55N 34°35' E 135°27'0 0.0
2018-Feb-21 00:28N 34°35' E 135°27'0 0.0
2018-Feb-20 23:55N 34°35' E 135°27'0 0.0
2018-Feb-20 23:28N 34°35' E 135°27'0 0.0
2018-Feb-20 22:58N 34°35' E 135°27'0 0.0
2018-Feb-20 22:25N 34°35' E 135°27'0 0.0
2018-Feb-20 21:55N 34°35' E 135°27'0 0.0
2018-Feb-20 21:28N 34°35' E 135°27'0 0.0
2018-Feb-20 20:55N 34°35' E 135°27'0 0.0
2018-Feb-20 20:28N 34°35' E 135°27'0 0.0
2018-Feb-20 19:58N 34°35' E 135°27'0 0.0
2018-Feb-20 19:28N 34°35' E 135°27'0 0.0
2018-Feb-20 18:58N 34°35' E 135°27'0 0.0
2018-Feb-20 18:22N 34°35' E 135°27'0 0.0
2018-Feb-20 17:58N 34°35' E 135°27'0 0.0
2018-Feb-20 17:25N 34°35' E 135°27'0 0.0
2018-Feb-20 16:58N 34°35' E 135°27'0 0.0
2018-Feb-20 16:28N 34°35' E 135°27'0 0.0
2018-Feb-20 15:55N 34°35' E 135°27'0 0.0
2018-Feb-20 15:28N 34°35' E 135°27'0 0.0
2018-Feb-20 14:55N 34°35' E 135°27'0 0.0
2018-Feb-20 14:28N 34°35' E 135°27'0 0.0
2018-Feb-20 13:55N 34°35' E 135°27'0 0.0
2018-Feb-20 13:19N 34°35' E 135°27'0 0.0
2018-Feb-20 12:58N 34°35' E 135°27'0 0.0
2018-Feb-20 12:25N 34°35' E 135°27'0 0.0
2018-Feb-20 11:49N 34°35' E 135°27'0 0.0
2018-Feb-20 11:28N 34°35' E 135°27'0 0.0
2018-Feb-20 10:55N 34°35' E 135°27'0 0.0
2018-Feb-20 10:28N 34°35' E 135°27'0 0.0
2018-Feb-20 09:46N 34°35' E 135°27'0 0.0
2018-Feb-20 09:25N 34°35' E 135°27'0 0.0
2018-Feb-20 08:55N 34°35' E 135°27'0 0.0
2018-Feb-20 08:28N 34°35' E 135°27'0 0.0
2018-Feb-20 07:58N 34°35' E 135°27'0 0.0
2018-Feb-20 07:30N 34°35' E 135°27'2 3.6
2018-Feb-20 06:59N 34°36' E 135°25'4 7.1
2018-Feb-20 06:30N 34°39' E 135°25'2 3.2
2018-Feb-20 06:00N 34°40' E 135°27'0 0.0
2018-Feb-20 05:27N 34°40' E 135°27'0 0.0
2018-Feb-20 05:00N 34°40' E 135°27'0 0.0
2018-Feb-20 04:28N 34°40' E 135°27'0 0.0
2018-Feb-20 03:57N 34°40' E 135°27'0 0.0
2018-Feb-20 03:30N 34°40' E 135°27'0 0.0
2018-Feb-20 02:57N 34°40' E 135°27'0 0.0
2018-Feb-20 02:30N 34°40' E 135°27'1 2.5
2018-Feb-20 02:00N 34°39' E 135°26'510.3
2018-Feb-20 01:30N 34°36' E 135°21'510.8
2018-Feb-20 01:00N 34°32' E 135°17'510.8
2018-Feb-20 00:30N 34°28' E 135°13'510.9
2018-Feb-20 00:00N 34°23' E 135°09'611.1
2018-Feb-19 23:28N 34°19' E 135°04'611.0
2018-Feb-19 22:58N 34°13' E 135°03'510.2
2018-Feb-19 22:27N 34°08' E 135°02'510.0
2018-Feb-19 21:59N 34°03' E 135°02'202 8.4
2018-Feb-18 21:56N 34°40' E 139°03'3910.1
2018-Feb-18 18:06N 35°05' E 139°38'710.8
2018-Feb-18 17:27N 35°10' E 139°44'510.2
2018-Feb-18 16:59N 35°15' E 139°46'510.1
2018-Feb-18 16:30N 35°19' E 139°43'510.0
2018-Feb-18 15:59N 35°24' E 139°43'4 8.4
2018-Feb-18 15:30N 35°24' E 139°48'3 6.6
2018-Feb-18 14:59N 35°22' E 139°51'0 0.0
2018-Feb-18 14:29N 35°22' E 139°51'0 0.0
2018-Feb-18 13:59N 35°22' E 139°51'0 0.0
2018-Feb-18 13:28N 35°22' E 139°51'0 0.0
2018-Feb-18 12:55N 35°22' E 139°51'0 0.0
2018-Feb-18 12:28N 35°22' E 139°51'0 0.0
2018-Feb-18 11:55N 35°22' E 139°51'0 0.0
2018-Feb-18 11:28N 35°22' E 139°51'0 0.0
2018-Feb-18 10:58N 35°22' E 139°51'0 0.0
2018-Feb-18 10:13N 35°22' E 139°51'0 0.0
2018-Feb-18 09:58N 35°22' E 139°51'0 0.0
2018-Feb-18 09:28N 35°22' E 139°51'0 0.0
2018-Feb-18 08:58N 35°22' E 139°51'0 0.0
2018-Feb-18 08:22N 35°22' E 139°51'0 0.0
2018-Feb-18 07:52N 35°22' E 139°51'0 0.0
2018-Feb-18 07:22N 35°22' E 139°51'0 0.0
2018-Feb-18 06:49N 35°22' E 139°51'0 0.0
2018-Feb-18 06:22N 35°22' E 139°51'0 0.0
2018-Feb-18 05:58N 35°22' E 139°51'0 0.0
2018-Feb-18 05:28N 35°22' E 139°51'0 0.0
2018-Feb-18 04:55N 35°22' E 139°51'0 0.0
2018-Feb-18 04:22N 35°22' E 139°51'0 0.0
2018-Feb-18 03:57N 35°22' E 139°51'0 0.0
2018-Feb-18 03:30N 35°22' E 139°51'0 0.0
2018-Feb-18 02:51N 35°22' E 139°51'0 0.8
2018-Feb-18 02:30N 35°21' E 139°51'0 0.2
2018-Feb-18 02:00N 35°21' E 139°51'0 0.0
2018-Feb-18 01:24N 35°21' E 139°51'0 0.0
2018-Feb-18 00:54N 35°21' E 139°51'0 0.0
2018-Feb-18 00:27N 35°21' E 139°51'0 0.0
2018-Feb-18 00:00N 35°21' E 139°51'0 0.0
2018-Feb-17 23:27N 35°21' E 139°51'0 0.0
2018-Feb-17 22:57N 35°21' E 139°51'0 0.0
2018-Feb-17 22:30N 35°21' E 139°51'0 0.0
2018-Feb-17 22:00N 35°21' E 139°51'0 0.0
2018-Feb-17 21:27N 35°21' E 139°51'0 0.0
2018-Feb-17 20:57N 35°21' E 139°51'0 0.0
2018-Feb-17 20:24N 35°21' E 139°51'0 0.0
2018-Feb-17 20:00N 35°21' E 139°51'0 0.0
2018-Feb-17 19:24N 35°21' E 139°51'0 0.0
2018-Feb-17 18:51N 35°21' E 139°51'0 0.0
2018-Feb-17 18:30N 35°21' E 139°51'0 0.0
2018-Feb-17 17:57N 35°21' E 139°51'0 0.0
2018-Feb-17 17:27N 35°21' E 139°51'0 0.0
2018-Feb-17 16:54N 35°21' E 139°51'0 0.0
2018-Feb-17 16:21N 35°21' E 139°51'0 0.0
2018-Feb-17 15:54N 35°21' E 139°51'0 0.0
2018-Feb-17 15:21N 35°21' E 139°51'0 0.0
2018-Feb-17 14:57N 35°21' E 139°51'0 0.0
2018-Feb-17 14:30N 35°21' E 139°51'0 0.0
2018-Feb-17 13:54N 35°21' E 139°51'0 0.0
2018-Feb-17 13:30N 35°21' E 139°51'0 0.0
2018-Feb-17 12:57N 35°21' E 139°51'0 0.0
2018-Feb-17 12:15N 35°21' E 139°51'0 0.0
2018-Feb-17 12:00N 35°21' E 139°51'0 0.0
2018-Feb-17 11:27N 35°21' E 139°51'0 0.0
2018-Feb-17 10:57N 35°21' E 139°51'0 0.0
2018-Feb-17 10:27N 35°21' E 139°51'0 0.0
2018-Feb-17 10:00N 35°21' E 139°51'0 0.0
2018-Feb-17 09:30N 35°21' E 139°51'0 0.0
2018-Feb-17 08:57N 35°21' E 139°51'0 0.1
2018-Feb-17 08:24N 35°21' E 139°51'0 0.8
2018-Feb-17 07:57N 35°22' E 139°51'0 0.0
2018-Feb-17 07:27N 35°22' E 139°51'0 0.0
2018-Feb-17 07:00N 35°22' E 139°51'0 0.0
2018-Feb-17 06:29N 35°22' E 139°51'0 0.0
2018-Feb-17 05:58N 35°22' E 139°51'0 0.0
2018-Feb-17 05:21N 35°22' E 139°51'0 0.0
2018-Feb-17 04:54N 35°22' E 139°51'1 1.4
2018-Feb-17 04:29N 35°22' E 139°50'510.7
2018-Feb-17 04:00N 35°26' E 139°53'2 0.1
2018-Feb-15 17:00N 35°27' E 139°50'510.5
2018-Feb-15 16:30N 35°23' E 139°46'510.8
2018-Feb-15 16:01N 35°18' E 139°45'610.2
2018-Feb-15 15:26N 35°12' E 139°47'150 9.7
2018-Feb-14 23:57N 34°47' E 136°46'511.5
2018-Feb-14 23:31N 34°52' E 136°46'611.1
2018-Feb-14 23:00N 34°58' E 136°47'611.6
2018-Feb-14 22:31N 35°02' E 136°51'2 3.6
2018-Feb-14 22:00N 35°04' E 136°52'0 0.0
2018-Feb-14 21:27N 35°04' E 136°52'0 0.0
2018-Feb-14 21:00N 35°04' E 136°52'0 0.0
2018-Feb-14 20:30N 35°04' E 136°52'0 0.0
2018-Feb-14 20:00N 35°04' E 136°52'0 0.0
2018-Feb-14 19:27N 35°04' E 136°52'0 0.0
2018-Feb-14 18:51N 35°04' E 136°52'0 0.0
2018-Feb-14 18:27N 35°04' E 136°52'0 0.0
2018-Feb-14 17:57N 35°04' E 136°52'0 0.0
2018-Feb-14 17:30N 35°04' E 136°52'0 0.0
2018-Feb-14 17:00N 35°04' E 136°52'0 0.0
2018-Feb-14 16:30N 35°04' E 136°52'0 0.0
2018-Feb-14 16:00N 35°04' E 136°52'0 0.0
2018-Feb-14 15:21N 35°04' E 136°52'0 0.0
2018-Feb-14 15:00N 35°04' E 136°52'0 0.0
2018-Feb-14 14:15N 35°04' E 136°52'0 0.0
2018-Feb-14 14:00N 35°04' E 136°52'0 0.0
2018-Feb-14 13:30N 35°04' E 136°52'0 0.0
2018-Feb-14 12:57N 35°04' E 136°52'0 0.0
2018-Feb-14 12:30N 35°04' E 136°52'0 0.0
2018-Feb-14 12:00N 35°04' E 136°52'0 0.0
2018-Feb-14 11:21N 35°04' E 136°52'0 0.0
2018-Feb-14 10:57N 35°04' E 136°52'0 0.0
2018-Feb-14 10:27N 35°04' E 136°52'0 0.0
2018-Feb-14 09:57N 35°04' E 136°52'0 0.0
2018-Feb-14 09:30N 35°04' E 136°52'0 0.0
2018-Feb-14 08:57N 35°04' E 136°52'0 0.0
2018-Feb-14 08:27N 35°04' E 136°52'0 0.0
2018-Feb-14 08:00N 35°04' E 136°52'0 0.0
2018-Feb-14 07:30N 35°04' E 136°52'0 0.0
2018-Feb-14 06:57N 35°04' E 136°52'0 0.0
2018-Feb-14 06:30N 35°04' E 136°52'0 0.0
2018-Feb-14 06:00N 35°04' E 136°52'0 0.0
2018-Feb-14 05:27N 35°04' E 136°52'0 0.0
2018-Feb-14 05:00N 35°04' E 136°52'0 0.0
2018-Feb-14 04:27N 35°04' E 136°52'0 0.0
2018-Feb-14 03:57N 35°04' E 136°52'0 0.0
2018-Feb-14 03:27N 35°04' E 136°52'0 0.0
2018-Feb-14 02:57N 35°04' E 136°52'0 0.0
2018-Feb-14 02:20N 35°04' E 136°52'0 0.1
2018-Feb-14 01:50N 35°04' E 136°52'0 0.0
2018-Feb-14 01:29N 35°04' E 136°52'0 0.0
2018-Feb-14 00:59N 35°04' E 136°52'1 2.2
2018-Feb-14 00:22N 35°05' E 136°53'0 0.0
2018-Feb-13 23:58N 35°05' E 136°53'0 0.0
2018-Feb-13 23:28N 35°05' E 136°53'0 0.0
2018-Feb-13 22:55N 35°05' E 136°53'0 0.0
2018-Feb-13 22:28N 35°05' E 136°53'0 0.0
2018-Feb-13 21:55N 35°05' E 136°53'0 0.1
2018-Feb-13 21:28N 35°05' E 136°53'0 0.0
2018-Feb-13 20:58N 35°05' E 136°53'0 0.0
2018-Feb-13 20:28N 35°05' E 136°53'0 0.0
2018-Feb-13 19:58N 35°05' E 136°53'0 0.0
2018-Feb-13 19:22N 35°05' E 136°53'0 0.0
2018-Feb-13 19:01N 35°05' E 136°53'4 7.6
2018-Feb-13 18:30N 35°02' E 136°51'510.9
2018-Feb-13 18:00N 34°57' E 136°47'510.7
2018-Feb-13 17:30N 34°51' E 136°47'610.6
2018-Feb-13 16:58N 34°46' E 136°47'  
Track history (hours):
 
Tides and Currents Weather Stations Pressure Air Temp Water Temp Dewpoint Dewpoint Depression Visibility Wind Speed Wind Dir Waves Ship Positions

Shinmisaki

Last reported at 2018-Feb-22 04:08 UTC. Time now 2018-Feb-24 15:55 UTC.
Position N 33°49' E 130°22'.

Length 59 m.

Type: Cargo ship. MMSI: 431501881.

Date/timePositionNaut miles runAvg speedWind from/ knotsBaromVisibWave heightAir tempDewpointWater temp
2018-Feb-22 04:08N 33°49' E 130°22'311.0
2018-Feb-22 03:51N 33°51' E 130°24'410.8
2018-Feb-22 03:30N 33°54' E 130°28'510.3
2018-Feb-22 03:00N 33°56' E 130°33'510.7
2018-Feb-22 02:30N 33°57' E 130°39'510.8
2018-Feb-22 02:00N 33°58' E 130°46'510.5
2018-Feb-22 01:30N 33°57' E 130°52'3 7.0
2018-Feb-22 01:00N 33°56' E 130°56'4 8.2
2018-Feb-22 00:30N 33°59' E 130°60'510.5
2018-Feb-22 00:00N 33°56' E 131°05'611.2
2018-Feb-21 23:30N 33°54' E 131°11'611.3
2018-Feb-21 23:00N 33°52' E 131°18'611.0
2018-Feb-21 22:29N 33°51' E 131°24'511.0
2018-Feb-21 21:59N 33°50' E 131°31'510.8
2018-Feb-21 21:30N 33°49' E 131°37'710.7
2018-Feb-21 20:52N 33°48' E 131°45'2510.6
2018-Feb-21 18:30N 33°50' E 132°15'2210.4
2018-Feb-21 16:25N 34°01' E 132°37'103 9.0
2018-Feb-21 05:01N 34°30' E 134°37'111.6
2018-Feb-21 04:58N 34°30' E 134°37'711.4
2018-Feb-21 04:23N 34°33' E 134°45'512.2
2018-Feb-21 04:00N 34°34' E 134°50'712.6
2018-Feb-21 03:27N 34°37' E 134°58'512.3
2018-Feb-21 03:01N 34°36' E 135°04'611.4
2018-Feb-21 02:31N 34°36' E 135°11'611.2
2018-Feb-21 02:01N 34°37' E 135°18'610.8
2018-Feb-21 01:30N 34°36' E 135°25'2 3.9
2018-Feb-21 00:55N 34°35' E 135°27'0 0.0
2018-Feb-21 00:28N 34°35' E 135°27'0 0.0
2018-Feb-20 23:55N 34°35' E 135°27'0 0.0
2018-Feb-20 23:28N 34°35' E 135°27'0 0.0
2018-Feb-20 22:58N 34°35' E 135°27'0 0.0
2018-Feb-20 22:25N 34°35' E 135°27'0 0.0
2018-Feb-20 21:55N 34°35' E 135°27'0 0.0
2018-Feb-20 21:28N 34°35' E 135°27'0 0.0
2018-Feb-20 20:55N 34°35' E 135°27'0 0.0
2018-Feb-20 20:28N 34°35' E 135°27'0 0.0
2018-Feb-20 19:58N 34°35' E 135°27'0 0.0
2018-Feb-20 19:28N 34°35' E 135°27'0 0.0
2018-Feb-20 18:58N 34°35' E 135°27'0 0.0
2018-Feb-20 18:22N 34°35' E 135°27'0 0.0
2018-Feb-20 17:58N 34°35' E 135°27'0 0.0
2018-Feb-20 17:25N 34°35' E 135°27'0 0.0
2018-Feb-20 16:58N 34°35' E 135°27'0 0.0
2018-Feb-20 16:28N 34°35' E 135°27'0 0.0
2018-Feb-20 15:55N 34°35' E 135°27'0 0.0
2018-Feb-20 15:28N 34°35' E 135°27'0 0.0
2018-Feb-20 14:55N 34°35' E 135°27'0 0.0
2018-Feb-20 14:28N 34°35' E 135°27'0 0.0
2018-Feb-20 13:55N 34°35' E 135°27'0 0.0
2018-Feb-20 13:19N 34°35' E 135°27'0 0.0
2018-Feb-20 12:58N 34°35' E 135°27'0 0.0
2018-Feb-20 12:25N 34°35' E 135°27'0 0.0
2018-Feb-20 11:49N 34°35' E 135°27'0 0.0
2018-Feb-20 11:28N 34°35' E 135°27'0 0.0
2018-Feb-20 10:55N 34°35' E 135°27'0 0.0
2018-Feb-20 10:28N 34°35' E 135°27'0 0.0
2018-Feb-20 09:46N 34°35' E 135°27'0 0.0
2018-Feb-20 09:25N 34°35' E 135°27'0 0.0
2018-Feb-20 08:55N 34°35' E 135°27'0 0.0
2018-Feb-20 08:28N 34°35' E 135°27'0 0.0
2018-Feb-20 07:58N 34°35' E 135°27'0 0.0
2018-Feb-20 07:30N 34°35' E 135°27'2 3.6
2018-Feb-20 06:59N 34°36' E 135°25'4 7.1
2018-Feb-20 06:30N 34°39' E 135°25'2 3.2
2018-Feb-20 06:00N 34°40' E 135°27'0 0.0
2018-Feb-20 05:27N 34°40' E 135°27'0 0.0
2018-Feb-20 05:00N 34°40' E 135°27'0 0.0
2018-Feb-20 04:28N 34°40' E 135°27'0 0.0
2018-Feb-20 03:57N 34°40' E 135°27'0 0.0
2018-Feb-20 03:30N 34°40' E 135°27'0 0.0
2018-Feb-20 02:57N 34°40' E 135°27'0 0.0
2018-Feb-20 02:30N 34°40' E 135°27'1 2.5
2018-Feb-20 02:00N 34°39' E 135°26'510.3
2018-Feb-20 01:30N 34°36' E 135°21'510.8
2018-Feb-20 01:00N 34°32' E 135°17'510.8
2018-Feb-20 00:30N 34°28' E 135°13'510.9
2018-Feb-20 00:00N 34°23' E 135°09'611.1
2018-Feb-19 23:28N 34°19' E 135°04'611.0
2018-Feb-19 22:58N 34°13' E 135°03'510.2
2018-Feb-19 22:27N 34°08' E 135°02'510.0
2018-Feb-19 21:59N 34°03' E 135°02'202 8.4
2018-Feb-18 21:56N 34°40' E 139°03'3910.1
2018-Feb-18 18:06N 35°05' E 139°38'710.8
2018-Feb-18 17:27N 35°10' E 139°44'510.2
2018-Feb-18 16:59N 35°15' E 139°46'510.1
2018-Feb-18 16:30N 35°19' E 139°43'510.0
2018-Feb-18 15:59N 35°24' E 139°43'4 8.4
2018-Feb-18 15:30N 35°24' E 139°48'3 6.6
2018-Feb-18 14:59N 35°22' E 139°51'0 0.0
2018-Feb-18 14:29N 35°22' E 139°51'0 0.0
2018-Feb-18 13:59N 35°22' E 139°51'0 0.0
2018-Feb-18 13:28N 35°22' E 139°51'0 0.0
2018-Feb-18 12:55N 35°22' E 139°51'0 0.0
2018-Feb-18 12:28N 35°22' E 139°51'0 0.0
2018-Feb-18 11:55N 35°22' E 139°51'0 0.0
2018-Feb-18 11:28N 35°22' E 139°51'0 0.0
2018-Feb-18 10:58N 35°22' E 139°51'0 0.0
2018-Feb-18 10:13N 35°22' E 139°51'0 0.0
2018-Feb-18 09:58N 35°22' E 139°51'0 0.0
2018-Feb-18 09:28N 35°22' E 139°51'0 0.0
2018-Feb-18 08:58N 35°22' E 139°51'0 0.0
2018-Feb-18 08:22N 35°22' E 139°51'0 0.0
2018-Feb-18 07:52N 35°22' E 139°51'0 0.0
2018-Feb-18 07:22N 35°22' E 139°51'0 0.0
2018-Feb-18 06:49N 35°22' E 139°51'0 0.0
2018-Feb-18 06:22N 35°22' E 139°51'0 0.0
2018-Feb-18 05:58N 35°22' E 139°51'0 0.0
2018-Feb-18 05:28N 35°22' E 139°51'0 0.0
2018-Feb-18 04:55N 35°22' E 139°51'0 0.0
2018-Feb-18 04:22N 35°22' E 139°51'0 0.0
2018-Feb-18 03:57N 35°22' E 139°51'0 0.0
2018-Feb-18 03:30N 35°22' E 139°51'0 0.0
2018-Feb-18 02:51N 35°22' E 139°51'0 0.8
2018-Feb-18 02:30N 35°21' E 139°51'0 0.2
2018-Feb-18 02:00N 35°21' E 139°51'0 0.0
2018-Feb-18 01:24N 35°21' E 139°51'0 0.0
2018-Feb-18 00:54N 35°21' E 139°51'0 0.0
2018-Feb-18 00:27N 35°21' E 139°51'0 0.0
2018-Feb-18 00:00N 35°21' E 139°51'0 0.0
2018-Feb-17 23:27N 35°21' E 139°51'0 0.0
2018-Feb-17 22:57N 35°21' E 139°51'0 0.0
2018-Feb-17 22:30N 35°21' E 139°51'0 0.0
2018-Feb-17 22:00N 35°21' E 139°51'0 0.0
2018-Feb-17 21:27N 35°21' E 139°51'0 0.0
2018-Feb-17 20:57N 35°21' E 139°51'0 0.0
2018-Feb-17 20:24N 35°21' E 139°51'0 0.0
2018-Feb-17 20:00N 35°21' E 139°51'0 0.0
2018-Feb-17 19:24N 35°21' E 139°51'0 0.0
2018-Feb-17 18:51N 35°21' E 139°51'0 0.0
2018-Feb-17 18:30N 35°21' E 139°51'0 0.0
2018-Feb-17 17:57N 35°21' E 139°51'0 0.0
2018-Feb-17 17:27N 35°21' E 139°51'0 0.0
2018-Feb-17 16:54N 35°21' E 139°51'0 0.0
2018-Feb-17 16:21N 35°21' E 139°51'0 0.0
2018-Feb-17 15:54N 35°21' E 139°51'0 0.0
2018-Feb-17 15:21N 35°21' E 139°51'0 0.0
2018-Feb-17 14:57N 35°21' E 139°51'0 0.0
2018-Feb-17 14:30N 35°21' E 139°51'0 0.0
2018-Feb-17 13:54N 35°21' E 139°51'0 0.0
2018-Feb-17 13:30N 35°21' E 139°51'0 0.0
2018-Feb-17 12:57N 35°21' E 139°51'0 0.0
2018-Feb-17 12:15N 35°21' E 139°51'0 0.0
2018-Feb-17 12:00N 35°21' E 139°51'0 0.0
2018-Feb-17 11:27N 35°21' E 139°51'0 0.0
2018-Feb-17 10:57N 35°21' E 139°51'0 0.0
2018-Feb-17 10:27N 35°21' E 139°51'0 0.0
2018-Feb-17 10:00N 35°21' E 139°51'0 0.0
2018-Feb-17 09:30N 35°21' E 139°51'0 0.0
2018-Feb-17 08:57N 35°21' E 139°51'0 0.1
2018-Feb-17 08:24N 35°21' E 139°51'0 0.8
2018-Feb-17 07:57N 35°22' E 139°51'0 0.0
2018-Feb-17 07:27N 35°22' E 139°51'0 0.0
2018-Feb-17 07:00N 35°22' E 139°51'0 0.0
2018-Feb-17 06:29N 35°22' E 139°51'0 0.0
2018-Feb-17 05:58N 35°22' E 139°51'0 0.0
2018-Feb-17 05:21N 35°22' E 139°51'0 0.0
2018-Feb-17 04:54N 35°22' E 139°51'1 1.4
2018-Feb-17 04:29N 35°22' E 139°50'510.7
2018-Feb-17 04:00N 35°26' E 139°53'2 0.1
2018-Feb-15 17:00N 35°27' E 139°50'510.5
2018-Feb-15 16:30N 35°23' E 139°46'510.8
2018-Feb-15 16:01N 35°18' E 139°45'610.2
2018-Feb-15 15:26N 35°12' E 139°47'150 9.7
2018-Feb-14 23:57N 34°47' E 136°46'511.5
2018-Feb-14 23:31N 34°52' E 136°46'611.1
2018-Feb-14 23:00N 34°58' E 136°47'611.6
2018-Feb-14 22:31N 35°02' E 136°51'2 3.6
2018-Feb-14 22:00N 35°04' E 136°52'0 0.0
2018-Feb-14 21:27N 35°04' E 136°52'0 0.0
2018-Feb-14 21:00N 35°04' E 136°52'0 0.0
2018-Feb-14 20:30N 35°04' E 136°52'0 0.0
2018-Feb-14 20:00N 35°04' E 136°52'0 0.0
2018-Feb-14 19:27N 35°04' E 136°52'0 0.0
2018-Feb-14 18:51N 35°04' E 136°52'0 0.0
2018-Feb-14 18:27N 35°04' E 136°52'0 0.0
2018-Feb-14 17:57N 35°04' E 136°52'0 0.0
2018-Feb-14 17:30N 35°04' E 136°52'0 0.0
2018-Feb-14 17:00N 35°04' E 136°52'0 0.0
2018-Feb-14 16:30N 35°04' E 136°52'0 0.0
2018-Feb-14 16:00N 35°04' E 136°52'0 0.0
2018-Feb-14 15:21N 35°04' E 136°52'0 0.0
2018-Feb-14 15:00N 35°04' E 136°52'0 0.0
2018-Feb-14 14:15N 35°04' E 136°52'0 0.0
2018-Feb-14 14:00N 35°04' E 136°52'0 0.0
2018-Feb-14 13:30N 35°04' E 136°52'0 0.0
2018-Feb-14 12:57N 35°04' E 136°52'0 0.0
2018-Feb-14 12:30N 35°04' E 136°52'0 0.0
2018-Feb-14 12:00N 35°04' E 136°52'0 0.0
2018-Feb-14 11:21N 35°04' E 136°52'0 0.0
2018-Feb-14 10:57N 35°04' E 136°52'0 0.0
2018-Feb-14 10:27N 35°04' E 136°52'0 0.0
2018-Feb-14 09:57N 35°04' E 136°52'0 0.0
2018-Feb-14 09:30N 35°04' E 136°52'0 0.0
2018-Feb-14 08:57N 35°04' E 136°52'0 0.0
2018-Feb-14 08:27N 35°04' E 136°52'0 0.0
2018-Feb-14 08:00N 35°04' E 136°52'0 0.0
2018-Feb-14 07:30N 35°04' E 136°52'0 0.0
2018-Feb-14 06:57N 35°04' E 136°52'0 0.0
2018-Feb-14 06:30N 35°04' E 136°52'0 0.0
2018-Feb-14 06:00N 35°04' E 136°52'0 0.0
2018-Feb-14 05:27N 35°04' E 136°52'0 0.0
2018-Feb-14 05:00N 35°04' E 136°52'0 0.0
2018-Feb-14 04:27N 35°04' E 136°52'0 0.0
2018-Feb-14 03:57N 35°04' E 136°52'0 0.0
2018-Feb-14 03:27N 35°04' E 136°52'0 0.0
2018-Feb-14 02:57N 35°04' E 136°52'0 0.0
2018-Feb-14 02:20N 35°04' E 136°52'0 0.1
2018-Feb-14 01:50N 35°04' E 136°52'0 0.0
2018-Feb-14 01:29N 35°04' E 136°52'0 0.0
2018-Feb-14 00:59N 35°04' E 136°52'1 2.2
2018-Feb-14 00:22N 35°05' E 136°53'0 0.0
2018-Feb-13 23:58N 35°05' E 136°53'0 0.0
2018-Feb-13 23:28N 35°05' E 136°53'0 0.0
2018-Feb-13 22:55N 35°05' E 136°53'0 0.0
2018-Feb-13 22:28N 35°05' E 136°53'0 0.0
2018-Feb-13 21:55N 35°05' E 136°53'0 0.1
2018-Feb-13 21:28N 35°05' E 136°53'0 0.0
2018-Feb-13 20:58N 35°05' E 136°53'0 0.0
2018-Feb-13 20:28N 35°05' E 136°53'0 0.0
2018-Feb-13 19:58N 35°05' E 136°53'0 0.0
2018-Feb-13 19:22N 35°05' E 136°53'0 0.0
2018-Feb-13 19:01N 35°05' E 136°53'4 7.6
2018-Feb-13 18:30N 35°02' E 136°51'510.9
2018-Feb-13 18:00N 34°57' E 136°47'510.7
2018-Feb-13 17:30N 34°51' E 136°47'610.6
2018-Feb-13 16:58N 34°46' E 136°47'  

Dump ship's entire track history